aviador You're here:

KMKO Decoded Metar

MUSKOGEE in OK, USA
Report Time2017-09-24 00:53:00
UTC Time2017-09-24 01:26:12
Flight Rules vfr VFR
Wind100° at 04 kt
W.Decomp.*RWY 13: 3.2 kt HW 2.4 kt LCW
RWY 04: 2.4 kt HW 3.2 kt RCW
RWY 18: 0.3 kt HW 4 kt LCW
W.Rank100° ranks 29
Current wind is below 100° avg. (6.3)
Visibility9999 m
Phenomena:N/A
Clouds:N/A
Expected CloudBase > 3,200 ft AGL from Temp-Dew spread
CeilingNone
Temp27°C (ISA +13)
Dew Point19°C (62% RH)
Heat Index28.2°C
QNH1013 hPa
Density Alt2,421 ft
Elevation607 ft
Report Wrong Elevation
Raw Report
KMKO 240053Z AUTO 10004KT 10SM CLR 27/19 A2992 RMK AO2 SLP123
T02720194=

Extra information for KMKO:More info

Metar Taf Metar & Taf Last 4 Metars F.Rules Stats Wind Profile Meteogram Temp Stats Airport Information Weather charts Add Link Nearby VenuesMetar ALERT Operation Metar Decoded Social comments

AIRNAV info for KMKO